sensor_id;sensor_type;location;lat;lon;timestamp;pressure;altitude;pressure_sealevel;temperature;humidity
34065;BME280;20339;49.754;20.158;2023-04-28T00:02:30;97125.74;;;2.02;71.82
34065;BME280;20339;49.754;20.158;2023-04-28T00:05:02;97124.76;;;2.11;71.68
34065;BME280;20339;49.754;20.158;2023-04-28T00:07:34;97125.34;;;2.11;71.38
34065;BME280;20339;49.754;20.158;2023-04-28T00:10:07;97125.19;;;2.09;71.28
34065;BME280;20339;49.754;20.158;2023-04-28T00:12:41;97123.83;;;2.12;71.25
34065;BME280;20339;49.754;20.158;2023-04-28T00:15:12;97122.61;;;2.14;71.19
34065;BME280;20339;49.754;20.158;2023-04-28T00:17:43;97119.55;;;2.14;71.19
34065;BME280;20339;49.754;20.158;2023-04-28T00:20:14;97117.91;;;2.09;70.95
34065;BME280;20339;49.754;20.158;2023-04-28T00:22:45;97114.23;;;2.07;71.14
34065;BME280;20339;49.754;20.158;2023-04-28T00:25:17;97110.05;;;2.07;71.36
34065;BME280;20339;49.754;20.158;2023-04-28T00:27:48;97112.52;;;2.10;71.33
34065;BME280;20339;49.754;20.158;2023-04-28T00:30:20;97112.59;;;2.09;71.14
34065;BME280;20339;49.754;20.158;2023-04-28T00:32:51;97113.42;;;2.07;71.01
34065;BME280;20339;49.754;20.158;2023-04-28T00:35:22;97114.60;;;2.10;71.23
34065;BME280;20339;49.754;20.158;2023-04-28T00:37:53;97112.40;;;2.10;71.35
34065;BME280;20339;49.754;20.158;2023-04-28T00:40:25;97112.55;;;2.06;71.07
34065;BME280;20339;49.754;20.158;2023-04-28T00:43:02;97113.48;;;2.04;71.07
34065;BME280;20339;49.754;20.158;2023-04-28T00:45:33;97114.62;;;2.04;71.08
34065;BME280;20339;49.754;20.158;2023-04-28T00:48:04;97113.29;;;2.05;71.26
34065;BME280;20339;49.754;20.158;2023-04-28T00:50:35;97106.39;;;2.03;71.55
34065;BME280;20339;49.754;20.158;2023-04-28T00:53:06;97111.27;;;2.05;71.62
34065;BME280;20339;49.754;20.158;2023-04-28T00:55:38;97106.36;;;2.05;71.48
34065;BME280;20339;49.754;20.158;2023-04-28T00:58:10;97105.23;;;2.02;71.18
34065;BME280;20339;49.754;20.158;2023-04-28T01:00:41;97102.06;;;2.00;71.15
34065;BME280;20339;49.754;20.158;2023-04-28T01:03:12;97101.23;;;1.96;71.00
34065;BME280;20339;49.754;20.158;2023-04-28T01:05:44;97105.63;;;1.93;71.07
34065;BME280;20339;49.754;20.158;2023-04-28T01:08:15;97103.38;;;1.93;70.94
34065;BME280;20339;49.754;20.158;2023-04-28T01:10:46;97103.11;;;1.91;70.93
34065;BME280;20339;49.754;20.158;2023-04-28T01:13:16;97100.81;;;1.93;71.14
34065;BME280;20339;49.754;20.158;2023-04-28T01:15:47;97104.77;;;1.96;71.32
34065;BME280;20339;49.754;20.158;2023-04-28T01:18:18;97102.23;;;1.95;71.24
34065;BME280;20339;49.754;20.158;2023-04-28T01:20:49;97102.62;;;1.92;71.18
34065;BME280;20339;49.754;20.158;2023-04-28T01:23:20;97103.91;;;1.92;71.27
34065;BME280;20339;49.754;20.158;2023-04-28T01:25:51;97103.07;;;1.92;70.97
34065;BME280;20339;49.754;20.158;2023-04-28T01:28:22;97105.21;;;1.90;70.97
34065;BME280;20339;49.754;20.158;2023-04-28T01:30:54;97103.60;;;1.90;71.18
34065;BME280;20339;49.754;20.158;2023-04-28T01:33:25;97102.11;;;1.96;71.05
34065;BME280;20339;49.754;20.158;2023-04-28T01:35:58;97102.77;;;1.95;71.08
34065;BME280;20339;49.754;20.158;2023-04-28T01:38:29;97101.40;;;1.93;70.79
34065;BME280;20339;49.754;20.158;2023-04-28T01:41:01;97101.89;;;1.93;70.70
34065;BME280;20339;49.754;20.158;2023-04-28T01:43:32;97101.73;;;1.89;70.66
34065;BME280;20339;49.754;20.158;2023-04-28T01:46:03;97105.21;;;1.85;70.56
34065;BME280;20339;49.754;20.158;2023-04-28T01:48:34;97104.21;;;1.85;70.78
34065;BME280;20339;49.754;20.158;2023-04-28T01:51:05;97104.55;;;1.89;71.02
34065;BME280;20339;49.754;20.158;2023-04-28T01:53:36;97105.46;;;1.95;70.96
34065;BME280;20339;49.754;20.158;2023-04-28T01:56:07;97104.39;;;2.01;70.82
34065;BME280;20339;49.754;20.158;2023-04-28T01:58:37;97105.27;;;2.06;70.81
34065;BME280;20339;49.754;20.158;2023-04-28T02:01:08;97107.22;;;2.10;70.71
34065;BME280;20339;49.754;20.158;2023-04-28T02:03:40;97109.19;;;2.12;70.62
34065;BME280;20339;49.754;20.158;2023-04-28T02:06:11;97110.30;;;2.13;70.56
34065;BME280;20339;49.754;20.158;2023-04-28T02:08:44;97110.83;;;2.11;70.62
34065;BME280;20339;49.754;20.158;2023-04-28T02:11:15;97113.16;;;2.11;70.58
34065;BME280;20339;49.754;20.158;2023-04-28T02:13:46;97114.38;;;2.08;70.47
34065;BME280;20339;49.754;20.158;2023-04-28T02:16:17;97114.14;;;2.05;70.41
34065;BME280;20339;49.754;20.158;2023-04-28T02:18:48;97111.75;;;2.06;71.03
34065;BME280;20339;49.754;20.158;2023-04-28T02:21:19;97116.91;;;2.09;71.00
34065;BME280;20339;49.754;20.158;2023-04-28T02:23:50;97117.74;;;2.10;70.89
34065;BME280;20339;49.754;20.158;2023-04-28T02:26:22;97118.55;;;2.09;70.97
34065;BME280;20339;49.754;20.158;2023-04-28T02:28:53;97114.69;;;2.06;70.92
34065;BME280;20339;49.754;20.158;2023-04-28T02:31:24;97115.55;;;2.03;70.75
34065;BME280;20339;49.754;20.158;2023-04-28T02:33:55;97118.58;;;2.02;70.73
34065;BME280;20339;49.754;20.158;2023-04-28T02:36:26;97120.25;;;2.00;70.96
34065;BME280;20339;49.754;20.158;2023-04-28T02:38:57;97123.14;;;2.00;71.12
34065;BME280;20339;49.754;20.158;2023-04-28T02:41:28;97120.56;;;2.00;71.07
34065;BME280;20339;49.754;20.158;2023-04-28T02:44:00;97126.67;;;2.00;71.15
34065;BME280;20339;49.754;20.158;2023-04-28T02:46:31;97129.30;;;1.99;71.01
34065;BME280;20339;49.754;20.158;2023-04-28T02:49:02;97127.98;;;1.97;71.23
34065;BME280;20339;49.754;20.158;2023-04-28T02:51:32;97127.02;;;1.94;71.57
34065;BME280;20339;49.754;20.158;2023-04-28T02:54:04;97128.43;;;1.89;71.57
34065;BME280;20339;49.754;20.158;2023-04-28T02:56:35;97128.77;;;1.84;71.63
34065;BME280;20339;49.754;20.158;2023-04-28T02:59:09;97127.77;;;1.82;71.62
34065;BME280;20339;49.754;20.158;2023-04-28T03:01:40;97126.77;;;1.83;71.49
34065;BME280;20339;49.754;20.158;2023-04-28T03:04:11;97132.09;;;1.84;71.56
34065;BME280;20339;49.754;20.158;2023-04-28T03:06:42;97124.60;;;1.82;71.44
34065;BME280;20339;49.754;20.158;2023-04-28T03:09:13;97122.79;;;1.82;71.40
34065;BME280;20339;49.754;20.158;2023-04-28T03:11:44;97123.52;;;1.79;71.46
34065;BME280;20339;49.754;20.158;2023-04-28T03:14:15;97119.67;;;1.78;71.37
34065;BME280;20339;49.754;20.158;2023-04-28T03:16:46;97118.53;;;1.81;71.51
34065;BME280;20339;49.754;20.158;2023-04-28T03:19:17;97117.81;;;1.79;71.03
34065;BME280;20339;49.754;20.158;2023-04-28T03:21:48;97116.45;;;1.79;71.29
34065;BME280;20339;49.754;20.158;2023-04-28T03:24:19;97120.70;;;1.83;71.38
34065;BME280;20339;49.754;20.158;2023-04-28T03:26:51;97121.17;;;1.87;71.35
34065;BME280;20339;49.754;20.158;2023-04-28T03:29:22;97116.70;;;1.88;71.38
34065;BME280;20339;49.754;20.158;2023-04-28T03:31:54;97117.89;;;1.89;71.35
34065;BME280;20339;49.754;20.158;2023-04-28T03:34:25;97118.27;;;1.88;71.25
34065;BME280;20339;49.754;20.158;2023-04-28T03:36:56;97116.89;;;1.89;71.15
34065;BME280;20339;49.754;20.158;2023-04-28T03:39:27;97115.88;;;1.90;71.09
34065;BME280;20339;49.754;20.158;2023-04-28T03:41:58;97118.66;;;1.92;70.98
34065;BME280;20339;49.754;20.158;2023-04-28T03:44:29;97121.36;;;1.93;70.76
34065;BME280;20339;49.754;20.158;2023-04-28T03:47:00;97121.36;;;1.93;70.76
34065;BME280;20339;49.754;20.158;2023-04-28T03:49:31;97124.73;;;1.94;70.74
34065;BME280;20339;49.754;20.158;2023-04-28T03:52:02;97124.86;;;2.00;70.83
34065;BME280;20339;49.754;20.158;2023-04-28T03:54:34;97130.77;;;2.07;70.75
34065;BME280;20339;49.754;20.158;2023-04-28T03:57:05;97127.36;;;2.13;70.72
34065;BME280;20339;49.754;20.158;2023-04-28T03:59:36;97128.92;;;2.19;70.60
34065;BME280;20339;49.754;20.158;2023-04-28T04:02:07;97131.40;;;2.27;70.55
34065;BME280;20339;49.754;20.158;2023-04-28T04:04:39;97134.29;;;2.34;70.33
34065;BME280;20339;49.754;20.158;2023-04-28T04:07:09;97131.03;;;2.40;70.20
34065;BME280;20339;49.754;20.158;2023-04-28T04:09:41;97129.27;;;2.48;70.20
34065;BME280;20339;49.754;20.158;2023-04-28T04:12:12;97129.34;;;2.55;69.90
34065;BME280;20339;49.754;20.158;2023-04-28T04:14:43;97128.17;;;2.59;69.95
34065;BME280;20339;49.754;20.158;2023-04-28T04:17:14;97123.77;;;2.65;69.83
34065;BME280;20339;49.754;20.158;2023-04-28T04:19:45;97127.58;;;2.67;69.90
34065;BME280;20339;49.754;20.158;2023-04-28T04:22:16;97127.13;;;2.69;69.72
34065;BME280;20339;49.754;20.158;2023-04-28T04:24:47;97124.70;;;2.78;69.59
34065;BME280;20339;49.754;20.158;2023-04-28T04:27:19;97121.88;;;2.92;69.52
34065;BME280;20339;49.754;20.158;2023-04-28T04:29:50;97122.14;;;3.04;69.10
34065;BME280;20339;49.754;20.158;2023-04-28T04:32:21;97114.98;;;3.42;68.70
34065;BME280;20339;49.754;20.158;2023-04-28T04:34:52;97119.22;;;4.65;67.90
34065;BME280;20339;49.754;20.158;2023-04-28T04:37:23;97117.45;;;6.00;65.44
34065;BME280;20339;49.754;20.158;2023-04-28T04:39:54;97111.15;;;7.23;63.74
34065;BME280;20339;49.754;20.158;2023-04-28T04:42:25;97105.38;;;8.14;60.57
34065;BME280;20339;49.754;20.158;2023-04-28T04:44:57;97102.72;;;8.74;58.43
34065;BME280;20339;49.754;20.158;2023-04-28T04:47:28;97103.41;;;9.28;56.63
34065;BME280;20339;49.754;20.158;2023-04-28T04:49:59;97102.65;;;9.82;55.80
34065;BME280;20339;49.754;20.158;2023-04-28T04:52:30;97100.77;;;10.50;53.88
34065;BME280;20339;49.754;20.158;2023-04-28T04:55:01;97094.58;;;11.17;53.35
34065;BME280;20339;49.754;20.158;2023-04-28T04:57:32;97093.15;;;11.78;51.48
34065;BME280;20339;49.754;20.158;2023-04-28T05:00:04;97094.79;;;12.41;49.77
34065;BME280;20339;49.754;20.158;2023-04-28T05:02:36;97092.98;;;12.90;48.59
34065;BME280;20339;49.754;20.158;2023-04-28T05:05:08;97089.82;;;13.40;47.82
34065;BME280;20339;49.754;20.158;2023-04-28T05:07:39;97091.69;;;13.80;46.40
34065;BME280;20339;49.754;20.158;2023-04-28T05:10:10;97087.67;;;13.77;44.04
34065;BME280;20339;49.754;20.158;2023-04-28T05:12:41;97089.81;;;13.68;44.11
34065;BME280;20339;49.754;20.158;2023-04-28T05:15:13;97095.87;;;14.36;44.15
34065;BME280;20339;49.754;20.158;2023-04-28T05:17:44;97092.18;;;14.65;42.40
34065;BME280;20339;49.754;20.158;2023-04-28T05:20:15;97096.38;;;14.59;41.86
34065;BME280;20339;49.754;20.158;2023-04-28T05:22:46;97097.92;;;14.65;40.75
34065;BME280;20339;49.754;20.158;2023-04-28T05:25:17;97095.86;;;14.68;41.23
34065;BME280;20339;49.754;20.158;2023-04-28T05:27:48;97095.88;;;15.08;40.54
34065;BME280;20339;49.754;20.158;2023-04-28T05:30:20;97096.21;;;15.15;39.54
34065;BME280;20339;49.754;20.158;2023-04-28T05:32:52;97095.30;;;15.07;39.05
34065;BME280;20339;49.754;20.158;2023-04-28T05:35:24;97097.73;;;15.51;39.94
34065;BME280;20339;49.754;20.158;2023-04-28T05:37:55;97094.27;;;16.38;39.20
34065;BME280;20339;49.754;20.158;2023-04-28T05:40:26;97096.25;;;16.76;38.19
34065;BME280;20339;49.754;20.158;2023-04-28T05:42:57;97096.61;;;16.91;37.40
34065;BME280;20339;49.754;20.158;2023-04-28T05:45:28;97093.71;;;16.95;36.06
34065;BME280;20339;49.754;20.158;2023-04-28T05:47:59;97098.67;;;16.47;36.20
34065;BME280;20339;49.754;20.158;2023-04-28T05:50:30;97100.42;;;16.34;36.19
34065;BME280;20339;49.754;20.158;2023-04-28T05:53:01;97106.94;;;16.62;35.90
34065;BME280;20339;49.754;20.158;2023-04-28T05:55:33;97108.05;;;16.85;35.24
34065;BME280;20339;49.754;20.158;2023-04-28T05:58:05;97107.67;;;17.08;35.51
34065;BME280;20339;49.754;20.158;2023-04-28T06:00:36;97106.40;;;17.58;35.44
34065;BME280;20339;49.754;20.158;2023-04-28T06:03:07;97104.66;;;17.84;34.53
34065;BME280;20339;49.754;20.158;2023-04-28T06:05:39;97108.59;;;18.08;33.89
34065;BME280;20339;49.754;20.158;2023-04-28T06:08:11;97105.62;;;17.86;33.41
34065;BME280;20339;49.754;20.158;2023-04-28T06:10:42;97111.50;;;18.23;33.72
34065;BME280;20339;49.754;20.158;2023-04-28T06:13:13;97113.61;;;18.93;33.19
34065;BME280;20339;49.754;20.158;2023-04-28T06:15:44;97112.27;;;19.57;33.46
34065;BME280;20339;49.754;20.158;2023-04-28T06:18:15;97106.91;;;20.28;32.30
34065;BME280;20339;49.754;20.158;2023-04-28T06:20:45;97111.15;;;20.47;32.09
34065;BME280;20339;49.754;20.158;2023-04-28T06:23:16;97112.31;;;20.88;31.33
34065;BME280;20339;49.754;20.158;2023-04-28T06:25:48;97108.69;;;20.99;31.45
34065;BME280;20339;49.754;20.158;2023-04-28T06:28:19;97102.70;;;21.33;31.26
34065;BME280;20339;49.754;20.158;2023-04-28T06:30:50;97103.80;;;21.36;30.52
34065;BME280;20339;49.754;20.158;2023-04-28T06:33:21;97098.59;;;20.90;30.21
34065;BME280;20339;49.754;20.158;2023-04-28T06:35:52;97103.42;;;20.65;30.24
34065;BME280;20339;49.754;20.158;2023-04-28T06:38:23;97100.80;;;20.82;30.33
34065;BME280;20339;49.754;20.158;2023-04-28T06:40:54;97104.20;;;21.18;30.31
34065;BME280;20339;49.754;20.158;2023-04-28T06:43:25;97098.56;;;21.48;29.45
34065;BME280;20339;49.754;20.158;2023-04-28T06:45:56;97102.22;;;21.04;28.55
34065;BME280;20339;49.754;20.158;2023-04-28T06:48:27;97103.92;;;20.48;29.05
34065;BME280;20339;49.754;20.158;2023-04-28T06:50:58;97107.45;;;20.59;29.59
34065;BME280;20339;49.754;20.158;2023-04-28T06:53:29;97104.73;;;20.85;28.63
34065;BME280;20339;49.754;20.158;2023-04-28T06:56:00;97098.20;;;20.50;27.97
34065;BME280;20339;49.754;20.158;2023-04-28T06:58:31;97097.95;;;20.23;28.98
34065;BME280;20339;49.754;20.158;2023-04-28T07:01:02;97096.02;;;21.33;29.01
34065;BME280;20339;49.754;20.158;2023-04-28T07:03:34;97088.48;;;22.48;28.42
34065;BME280;20339;49.754;20.158;2023-04-28T07:06:05;97088.78;;;23.14;27.87
34065;BME280;20339;49.754;20.158;2023-04-28T07:08:36;97085.73;;;23.88;27.12
34065;BME280;20339;49.754;20.158;2023-04-28T07:11:07;97086.66;;;24.50;26.50
34065;BME280;20339;49.754;20.158;2023-04-28T07:13:41;97082.83;;;24.22;25.48
34065;BME280;20339;49.754;20.158;2023-04-28T07:16:12;97088.15;;;24.15;25.77
34065;BME280;20339;49.754;20.158;2023-04-28T07:18:43;97082.42;;;25.00;26.11
34065;BME280;20339;49.754;20.158;2023-04-28T07:21:13;97083.09;;;26.02;25.47
34065;BME280;20339;49.754;20.158;2023-04-28T07:23:44;97076.58;;;26.48;24.13
34065;BME280;20339;49.754;20.158;2023-04-28T07:26:15;97076.31;;;26.72;23.80
34065;BME280;20339;49.754;20.158;2023-04-28T07:28:46;97076.23;;;27.09;24.16
34065;BME280;20339;49.754;20.158;2023-04-28T07:31:17;97066.08;;;27.07;22.02
34065;BME280;20339;49.754;20.158;2023-04-28T07:33:50;97068.16;;;25.63;22.34
34065;BME280;20339;49.754;20.158;2023-04-28T07:36:21;97066.97;;;25.28;21.94
34065;BME280;20339;49.754;20.158;2023-04-28T07:38:52;97064.96;;;25.52;23.06
34065;BME280;20339;49.754;20.158;2023-04-28T07:41:25;97063.98;;;26.17;22.54
34065;BME280;20339;49.754;20.158;2023-04-28T07:43:56;97058.27;;;25.63;21.24
34065;BME280;20339;49.754;20.158;2023-04-28T07:46:27;97064.46;;;24.29;21.58
34065;BME280;20339;49.754;20.158;2023-04-28T07:48:59;97064.34;;;24.58;22.48
34065;BME280;20339;49.754;20.158;2023-04-28T07:51:30;97057.53;;;24.57;21.54
34065;BME280;20339;49.754;20.158;2023-04-28T07:54:01;97057.37;;;24.34;22.49
34065;BME280;20339;49.754;20.158;2023-04-28T07:56:32;97062.73;;;24.50;21.36
34065;BME280;20339;49.754;20.158;2023-04-28T07:59:03;97058.83;;;23.44;20.80
34065;BME280;20339;49.754;20.158;2023-04-28T08:01:34;97057.47;;;22.92;22.32
34065;BME280;20339;49.754;20.158;2023-04-28T08:04:05;97059.22;;;22.54;21.97
34065;BME280;20339;49.754;20.158;2023-04-28T08:06:36;97059.14;;;22.84;22.70
34065;BME280;20339;49.754;20.158;2023-04-28T08:09:08;97062.73;;;23.16;21.91
34065;BME280;20339;49.754;20.158;2023-04-28T08:11:39;97053.70;;;23.26;22.08
34065;BME280;20339;49.754;20.158;2023-04-28T08:14:10;97054.16;;;23.49;22.36
34065;BME280;20339;49.754;20.158;2023-04-28T08:16:41;97048.92;;;23.53;22.17
34065;BME280;20339;49.754;20.158;2023-04-28T08:19:12;97045.38;;;24.12;22.82
34065;BME280;20339;49.754;20.158;2023-04-28T08:21:43;97039.94;;;25.22;22.80
34065;BME280;20339;49.754;20.158;2023-04-28T08:24:14;97036.23;;;25.75;21.80
34065;BME280;20339;49.754;20.158;2023-04-28T08:26:46;97036.20;;;25.73;21.95
34065;BME280;20339;49.754;20.158;2023-04-28T08:29:16;97035.44;;;25.26;19.78
34065;BME280;20339;49.754;20.158;2023-04-28T08:31:47;97033.32;;;23.41;20.51
34065;BME280;20339;49.754;20.158;2023-04-28T08:34:18;97030.50;;;22.60;22.48
34065;BME280;20339;49.754;20.158;2023-04-28T08:36:50;97030.36;;;23.20;22.99
34065;BME280;20339;49.754;20.158;2023-04-28T08:39:21;97024.70;;;22.82;22.46
34065;BME280;20339;49.754;20.158;2023-04-28T08:41:52;97024.19;;;22.46;23.21
34065;BME280;20339;49.754;20.158;2023-04-28T08:44:23;97027.41;;;23.55;22.20
34065;BME280;20339;49.754;20.158;2023-04-28T08:46:56;97021.33;;;22.92;21.99
34065;BME280;20339;49.754;20.158;2023-04-28T08:49:34;97019.12;;;22.42;21.98
34065;BME280;20339;49.754;20.158;2023-04-28T08:52:12;97015.04;;;22.08;22.41
34065;BME280;20339;49.754;20.158;2023-04-28T08:54:51;97017.05;;;22.82;23.12
34065;BME280;20339;49.754;20.158;2023-04-28T08:57:22;97012.98;;;22.72;21.59
34065;BME280;20339;49.754;20.158;2023-04-28T08:59:55;97011.98;;;22.20;22.63
34065;BME280;20339;49.754;20.158;2023-04-28T09:02:28;97015.17;;;21.97;23.37
34065;BME280;20339;49.754;20.158;2023-04-28T09:04:59;97008.39;;;21.53;23.93
34065;BME280;20339;49.754;20.158;2023-04-28T09:07:30;97010.27;;;21.52;24.81
34065;BME280;20339;49.754;20.158;2023-04-28T09:10:21;97008.58;;;22.09;24.55
34065;BME280;20339;49.754;20.158;2023-04-28T09:12:54;97008.20;;;22.46;24.22
34065;BME280;20339;49.754;20.158;2023-04-28T09:15:30;97002.94;;;21.68;23.73
34065;BME280;20339;49.754;20.158;2023-04-28T09:18:03;97007.98;;;20.22;24.34
34065;BME280;20339;49.754;20.158;2023-04-28T09:20:36;97005.84;;;19.30;25.06
34065;BME280;20339;49.754;20.158;2023-04-28T09:23:17;97004.17;;;18.52;25.83
34065;BME280;20339;49.754;20.158;2023-04-28T09:25:59;97003.28;;;17.46;26.74
34065;BME280;20339;49.754;20.158;2023-04-28T09:28:31;96999.30;;;16.94;27.54
34065;BME280;20339;49.754;20.158;2023-04-28T09:31:02;96996.73;;;16.43;28.59
34065;BME280;20339;49.754;20.158;2023-04-28T09:33:33;96997.63;;;15.61;29.04
34065;BME280;20339;49.754;20.158;2023-04-28T09:36:05;96999.96;;;15.34;30.09
34065;BME280;20339;49.754;20.158;2023-04-28T09:38:43;96997.57;;;15.36;29.78
34065;BME280;20339;49.754;20.158;2023-04-28T09:41:14;96988.42;;;15.15;29.67
34065;BME280;20339;49.754;20.158;2023-04-28T09:43:45;96981.17;;;14.85;30.25
34065;BME280;20339;49.754;20.158;2023-04-28T09:46:28;96981.77;;;14.92;30.75
34065;BME280;20339;49.754;20.158;2023-04-28T09:49:02;96980.48;;;14.99;31.92
34065;BME280;20339;49.754;20.158;2023-04-28T09:51:33;96979.66;;;15.25;31.50
34065;BME280;20339;49.754;20.158;2023-04-28T09:54:04;96974.64;;;15.34;30.82
34065;BME280;20339;49.754;20.158;2023-04-28T09:56:36;96972.52;;;15.40;31.44
34065;BME280;20339;49.754;20.158;2023-04-28T09:59:07;96969.69;;;15.61;30.86
34065;BME280;20339;49.754;20.158;2023-04-28T10:01:40;96963.12;;;15.33;30.97
34065;BME280;20339;49.754;20.158;2023-04-28T10:04:13;96965.41;;;15.50;31.75
34065;BME280;20339;49.754;20.158;2023-04-28T10:06:45;96961.23;;;15.53;31.63
34065;BME280;20339;49.754;20.158;2023-04-28T10:09:16;96956.80;;;15.18;31.17
34065;BME280;20339;49.754;20.158;2023-04-28T10:11:55;96956.33;;;14.57;32.58
34065;BME280;20339;49.754;20.158;2023-04-28T10:14:26;96958.67;;;14.38;32.53
34065;BME280;20339;49.754;20.158;2023-04-28T10:16:58;96961.89;;;14.44;32.24
34065;BME280;20339;49.754;20.158;2023-04-28T10:19:32;96963.80;;;14.48;32.84
34065;BME280;20339;49.754;20.158;2023-04-28T10:22:14;96956.36;;;14.75;32.71
34065;BME280;20339;49.754;20.158;2023-04-28T10:25:11;96954.42;;;15.01;33.09
34065;BME280;20339;49.754;20.158;2023-04-28T10:27:48;96956.34;;;14.71;32.21
34065;BME280;20339;49.754;20.158;2023-04-28T10:30:20;96952.98;;;14.68;32.63
34065;BME280;20339;49.754;20.158;2023-04-28T10:33:23;96947.92;;;14.84;31.82
34065;BME280;20339;49.754;20.158;2023-04-28T10:35:55;96946.37;;;14.76;31.69
34065;BME280;20339;49.754;20.158;2023-04-28T10:38:26;96933.46;;;15.02;32.30
34065;BME280;20339;49.754;20.158;2023-04-28T10:40:57;96931.36;;;15.24;32.11
34065;BME280;20339;49.754;20.158;2023-04-28T10:43:38;96927.02;;;15.29;31.86
34065;BME280;20339;49.754;20.158;2023-04-28T10:46:10;96924.21;;;15.40;31.91
34065;BME280;20339;49.754;20.158;2023-04-28T10:49:06;96923.61;;;15.62;32.08
34065;BME280;20339;49.754;20.158;2023-04-28T10:51:37;96912.95;;;15.74;31.47
34065;BME280;20339;49.754;20.158;2023-04-28T10:54:17;96911.27;;;15.48;30.61
34065;BME280;20339;49.754;20.158;2023-04-28T10:57:17;96910.31;;;15.36;31.21
34065;BME280;20339;49.754;20.158;2023-04-28T10:59:49;96907.64;;;14.96;31.20
34065;BME280;20339;49.754;20.158;2023-04-28T11:02:40;96907.65;;;14.43;31.79
34065;BME280;20339;49.754;20.158;2023-04-28T11:05:16;96904.54;;;14.28;32.39
34065;BME280;20339;49.754;20.158;2023-04-28T11:11:15;96898.83;;;13.89;33.90
34065;BME280;20339;49.754;20.158;2023-04-28T11:13:47;96897.55;;;14.07;34.05
34065;BME280;20339;49.754;20.158;2023-04-28T11:16:21;96894.59;;;14.21;33.61
34065;BME280;20339;49.754;20.158;2023-04-28T11:19:00;96894.94;;;14.29;33.74
34065;BME280;20339;49.754;20.158;2023-04-28T11:21:34;96892.89;;;14.45;33.56
34065;BME280;20339;49.754;20.158;2023-04-28T11:24:10;96887.83;;;14.59;33.66
34065;BME280;20339;49.754;20.158;2023-04-28T11:26:42;96883.71;;;14.51;32.33
34065;BME280;20339;49.754;20.158;2023-04-28T11:29:13;96884.61;;;14.27;32.65
34065;BME280;20339;49.754;20.158;2023-04-28T11:31:51;96881.22;;;13.99;32.14
34065;BME280;20339;49.754;20.158;2023-04-28T11:34:22;96877.42;;;13.85;32.91
34065;BME280;20339;49.754;20.158;2023-04-28T11:36:54;96874.75;;;13.91;32.95
34065;BME280;20339;49.754;20.158;2023-04-28T11:39:30;96873.26;;;14.12;33.56
34065;BME280;20339;49.754;20.158;2023-04-28T11:42:09;96868.47;;;14.35;33.80
34065;BME280;20339;49.754;20.158;2023-04-28T11:44:41;96862.83;;;14.68;34.46
34065;BME280;20339;49.754;20.158;2023-04-28T11:47:29;96857.05;;;14.93;33.09
34065;BME280;20339;49.754;20.158;2023-04-28T11:50:01;96855.64;;;15.04;33.73
34065;BME280;20339;49.754;20.158;2023-04-28T11:52:32;96855.59;;;15.17;33.05
34065;BME280;20339;49.754;20.158;2023-04-28T11:55:03;96855.98;;;15.12;32.35
34065;BME280;20339;49.754;20.158;2023-04-28T11:57:34;96854.23;;;14.97;32.52
34065;BME280;20339;49.754;20.158;2023-04-28T12:00:16;96851.66;;;14.93;32.77
34065;BME280;20339;49.754;20.158;2023-04-28T12:02:50;96848.89;;;14.87;32.48
34065;BME280;20339;49.754;20.158;2023-04-28T12:05:21;96838.13;;;14.69;33.01
34065;BME280;20339;49.754;20.158;2023-04-28T12:07:53;96837.87;;;14.72;33.78
34065;BME280;20339;49.754;20.158;2023-04-28T12:10:24;96827.66;;;14.75;33.31
34065;BME280;20339;49.754;20.158;2023-04-28T12:12:55;96820.09;;;14.62;32.84
34065;BME280;20339;49.754;20.158;2023-04-28T12:15:40;96817.11;;;14.38;33.96
34065;BME280;20339;49.754;20.158;2023-04-28T12:18:12;96815.90;;;14.54;34.47
34065;BME280;20339;49.754;20.158;2023-04-28T12:20:48;96815.05;;;14.69;34.56
34065;BME280;20339;49.754;20.158;2023-04-28T12:23:31;96805.10;;;14.93;34.38
34065;BME280;20339;49.754;20.158;2023-04-28T12:26:03;96801.18;;;15.12;33.80
34065;BME280;20339;49.754;20.158;2023-04-28T12:28:41;96798.38;;;15.32;33.94
34065;BME280;20339;49.754;20.158;2023-04-28T12:31:12;96794.10;;;15.52;33.59
34065;BME280;20339;49.754;20.158;2023-04-28T12:33:44;96788.63;;;15.49;32.52
34065;BME280;20339;49.754;20.158;2023-04-28T12:36:16;96785.15;;;15.12;32.02
34065;BME280;20339;49.754;20.158;2023-04-28T12:38:50;96785.70;;;14.88;32.64
34065;BME280;20339;49.754;20.158;2023-04-28T12:41:21;96783.55;;;14.84;33.00
34065;BME280;20339;49.754;20.158;2023-04-28T12:43:53;96777.27;;;14.97;33.50
34065;BME280;20339;49.754;20.158;2023-04-28T12:46:24;96773.91;;;15.00;33.47
34065;BME280;20339;49.754;20.158;2023-04-28T12:48:55;96770.80;;;14.79;32.52
34065;BME280;20339;49.754;20.158;2023-04-28T12:51:26;96767.16;;;14.67;33.11
34065;BME280;20339;49.754;20.158;2023-04-28T12:53:58;96766.54;;;14.83;34.04
34065;BME280;20339;49.754;20.158;2023-04-28T12:56:30;96760.02;;;15.05;33.79
34065;BME280;20339;49.754;20.158;2023-04-28T12:59:00;96751.77;;;15.08;33.02
34065;BME280;20339;49.754;20.158;2023-04-28T13:01:32;96753.88;;;15.02;33.01
34065;BME280;20339;49.754;20.158;2023-04-28T13:04:03;96748.89;;;14.99;32.99
34065;BME280;20339;49.754;20.158;2023-04-28T13:06:34;96745.87;;;15.09;33.27
34065;BME280;20339;49.754;20.158;2023-04-28T13:09:06;96739.13;;;15.03;33.18
34065;BME280;20339;49.754;20.158;2023-04-28T13:11:37;96735.46;;;14.96;33.78
34065;BME280;20339;49.754;20.158;2023-04-28T13:14:09;96737.56;;;14.95;33.33
34065;BME280;20339;49.754;20.158;2023-04-28T13:16:40;96735.38;;;14.97;32.64
34065;BME280;20339;49.754;20.158;2023-04-28T13:19:11;96737.28;;;14.81;33.23
34065;BME280;20339;49.754;20.158;2023-04-28T13:21:44;96729.80;;;14.65;33.23
34065;BME280;20339;49.754;20.158;2023-04-28T13:24:15;96728.65;;;14.59;33.50